createdAt,value
2023-03-02T00:00:45.358Z,100308.75
2023-03-02T00:01:52.681Z,100307.28
2023-03-02T00:02:54.569Z,100313.34
2023-03-02T00:03:59.476Z,100306.84
2023-03-02T00:05:01.858Z,100306.91
2023-03-02T00:06:04.247Z,100309.78
2023-03-02T00:07:10.737Z,100306.06
2023-03-02T00:08:15.672Z,100313.78
2023-03-02T00:09:17.856Z,100306.34
2023-03-02T00:10:19.780Z,100298.97
2023-03-02T00:11:22.294Z,100297.06
2023-03-02T00:12:27.075Z,100302.22
2023-03-02T00:13:30.700Z,100303.53
2023-03-02T00:14:32.661Z,100307.84
2023-03-02T00:15:34.541Z,100301.63
2023-03-02T00:16:36.544Z,100305.91
2023-03-02T00:17:38.722Z,100303.38
2023-03-02T00:18:40.574Z,100304.94
2023-03-02T00:19:42.503Z,100303.44
2023-03-02T00:20:44.351Z,100302.59
2023-03-02T00:21:46.289Z,100301.53
2023-03-02T00:22:48.616Z,100300.56
2023-03-02T00:23:51.992Z,100292.03
2023-03-02T00:24:53.962Z,100297.19
2023-03-02T00:25:55.840Z,100306.31
2023-03-02T00:26:57.800Z,100299.88
2023-03-02T00:27:59.982Z,100300.41
2023-03-02T00:29:02.566Z,100295.25
2023-03-02T00:30:05.249Z,100287.13
2023-03-02T00:31:07.380Z,100292.00
2023-03-02T00:32:09.450Z,100287.38
2023-03-02T00:33:11.815Z,100286.84
2023-03-02T00:34:13.683Z,100282.22
2023-03-02T00:35:16.170Z,100283.78
2023-03-02T00:36:20.609Z,100279.94
2023-03-02T00:37:22.548Z,100279.06
2023-03-02T00:38:24.820Z,100278.69
2023-03-02T00:39:26.689Z,100278.81
2023-03-02T00:40:28.617Z,100273.59
2023-03-02T00:41:30.739Z,100276.41
2023-03-02T00:42:33.706Z,100271.69
2023-03-02T00:43:35.866Z,100270.38
2023-03-02T00:44:37.710Z,100278.22
2023-03-02T00:45:39.626Z,100273.84
2023-03-02T00:46:41.499Z,100279.81
2023-03-02T00:47:43.364Z,100277.72
2023-03-02T00:48:46.253Z,100269.03
2023-03-02T00:49:49.539Z,100271.41
2023-03-02T00:50:51.462Z,100274.94
2023-03-02T00:51:53.451Z,100280.38
2023-03-02T00:52:55.504Z,100266.75
2023-03-02T00:53:57.699Z,100263.06
2023-03-02T00:54:59.666Z,100268.84
2023-03-02T00:56:03.145Z,100260.87
2023-03-02T00:57:06.378Z,100260.06
2023-03-02T00:58:08.330Z,100259.25
2023-03-02T00:59:28.565Z,100263.47
2023-03-02T01:00:32.700Z,100260.91
2023-03-02T01:01:35.022Z,100263.59
2023-03-02T01:02:43.919Z,100255.44
2023-03-02T01:03:46.920Z,100260.63
2023-03-02T01:04:49.644Z,100247.59
2023-03-02T01:05:55.390Z,100252.97
2023-03-02T01:06:58.789Z,100245.66
2023-03-02T01:08:00.620Z,100246.75
2023-03-02T01:09:02.629Z,100254.94
2023-03-02T01:10:05.262Z,100247.59
2023-03-02T01:11:16.725Z,100250.00
2023-03-02T01:12:18.940Z,100251.56
2023-03-02T01:13:21.651Z,100245.47
2023-03-02T01:14:24.512Z,100241.78
2023-03-02T01:15:26.661Z,100239.34
2023-03-02T01:16:28.491Z,100237.19
2023-03-02T01:17:30.357Z,100236.50
2023-03-02T01:18:33.033Z,100236.69
2023-03-02T01:19:35.260Z,100237.53
2023-03-02T01:20:37.528Z,100235.62
2023-03-02T01:21:39.873Z,100234.22
2023-03-02T01:22:43.410Z,100236.97
2023-03-02T01:23:45.327Z,100229.69
2023-03-02T01:24:47.370Z,100227.81
2023-03-02T01:25:49.770Z,100231.53
2023-03-02T01:26:51.681Z,100229.31
2023-03-02T01:27:53.876Z,100232.31
2023-03-02T01:28:55.863Z,100222.72
2023-03-02T01:29:57.898Z,100223.19
2023-03-02T01:31:02.750Z,100226.50
2023-03-02T01:32:05.372Z,100220.53
2023-03-02T01:33:07.326Z,100227.84
2023-03-02T01:34:09.292Z,100214.97
2023-03-02T01:35:11.260Z,100218.66
2023-03-02T01:36:13.513Z,100215.16
2023-03-02T01:37:15.420Z,100221.62
2023-03-02T01:38:17.385Z,100219.97
2023-03-02T01:39:22.419Z,100212.41
2023-03-02T01:40:25.745Z,100211.06
2023-03-02T01:41:28.336Z,100209.75
2023-03-02T01:42:38.507Z,100218.69
2023-03-02T01:43:40.406Z,100213.28
2023-03-02T01:44:50.149Z,100212.88
2023-03-02T01:45:59.252Z,100207.84
2023-03-02T01:47:13.858Z,100204.31
2023-03-02T01:48:23.742Z,100196.47
2023-03-02T01:49:26.307Z,100197.44
2023-03-02T01:50:29.139Z,100200.13
2023-03-02T01:51:35.646Z,100197.84
2023-03-02T01:52:38.640Z,100195.69
2023-03-02T01:53:46.585Z,100191.62
2023-03-02T01:54:50.327Z,100193.63
2023-03-02T01:55:52.819Z,100192.81
2023-03-02T01:57:02.391Z,100190.94
2023-03-02T01:58:06.124Z,100191.50
2023-03-02T01:59:16.706Z,100189.19
2023-03-02T02:00:24.763Z,100187.16
2023-03-02T02:01:27.147Z,100177.28
2023-03-02T02:02:29.338Z,100174.56
2023-03-02T02:03:31.789Z,100174.00
2023-03-02T02:04:37.703Z,100171.72
2023-03-02T02:05:42.970Z,100172.69
2023-03-02T02:06:50.421Z,100173.50
2023-03-02T02:07:52.420Z,100169.28
2023-03-02T02:08:57.439Z,100179.16
2023-03-02T02:10:00.698Z,100170.06
2023-03-02T02:11:02.610Z,100167.50
2023-03-02T02:12:05.917Z,100166.41
2023-03-02T02:13:11.758Z,100174.44
2023-03-02T02:14:13.721Z,100171.72
2023-03-02T02:15:15.732Z,100168.63
2023-03-02T02:16:18.274Z,100169.31
2023-03-02T02:17:20.932Z,100168.22
2023-03-02T02:18:23.253Z,100168.91
2023-03-02T02:20:00.566Z,100169.97
2023-03-02T02:21:02.431Z,100178.34
2023-03-02T02:22:04.473Z,100169.16
2023-03-02T02:23:25.840Z,100166.75
2023-03-02T02:24:46.046Z,100168.91
2023-03-02T02:25:53.495Z,100165.94
2023-03-02T02:26:57.760Z,100167.00
2023-03-02T02:27:59.781Z,100169.16
2023-03-02T02:29:12.384Z,100172.13
2023-03-02T02:30:16.312Z,100166.19
2023-03-02T02:31:38.088Z,100169.97
2023-03-02T02:32:41.689Z,100168.22
2023-03-02T02:33:49.452Z,100167.69
2023-03-02T02:34:59.422Z,100167.53
2023-03-02T02:36:10.199Z,100163.75
2023-03-02T02:37:16.936Z,100162.41
2023-03-02T02:38:21.367Z,100162.53
2023-03-02T02:39:31.634Z,100164.28
2023-03-02T02:40:48.396Z,100162.13
2023-03-02T02:41:55.114Z,100162.13
2023-03-02T02:42:57.185Z,100155.34
2023-03-02T02:43:59.228Z,100165.87
2023-03-02T02:45:05.748Z,100163.19
2023-03-02T02:46:10.556Z,100163.84
2023-03-02T02:47:20.648Z,100163.78
2023-03-02T02:48:25.325Z,100156.41
2023-03-02T02:49:40.122Z,100162.53
2023-03-02T02:50:43.149Z,100165.38
2023-03-02T02:51:45.386Z,100160.13
2023-03-02T02:52:55.545Z,100163.50
2023-03-02T02:53:59.146Z,100169.69
2023-03-02T02:55:02.291Z,100167.09
2023-03-02T02:56:07.171Z,100169.44
2023-03-02T02:57:12.320Z,100169.16
2023-03-02T02:58:20.166Z,100163.75
2023-03-02T02:59:29.776Z,100162.41
2023-03-02T03:00:32.106Z,100165.78
2023-03-02T03:01:34.857Z,100158.06
2023-03-02T03:02:44.192Z,100160.62
2023-03-02T03:03:52.754Z,100159.78
2023-03-02T03:05:04.791Z,100159.94
2023-03-02T03:06:13.629Z,100152.59
2023-03-02T03:07:24.692Z,100155.41
2023-03-02T03:08:53.077Z,100149.56
2023-03-02T03:10:16.197Z,100146.94
2023-03-02T03:11:26.457Z,100141.78
2023-03-02T03:12:31.810Z,100144.06
2023-03-02T03:13:34.187Z,100145.91
2023-03-02T03:14:40.374Z,100141.31
2023-03-02T03:15:42.988Z,100145.59
2023-03-02T03:16:46.551Z,100139.56
2023-03-02T03:17:55.125Z,100142.72
2023-03-02T03:19:01.693Z,100146.19
2023-03-02T03:20:09.101Z,100144.66
2023-03-02T03:21:11.476Z,100145.09
2023-03-02T03:22:15.959Z,100142.28
2023-03-02T03:23:18.279Z,100139.31
2023-03-02T03:24:20.759Z,100135.19
2023-03-02T03:25:26.791Z,100149.37
2023-03-02T03:26:29.820Z,100138.09
2023-03-02T03:27:32.225Z,100143.44
2023-03-02T03:28:36.005Z,100142.63
2023-03-02T03:29:41.441Z,100140.41
2023-03-02T03:30:44.400Z,100143.94
2023-03-02T03:31:47.201Z,100149.81
2023-03-02T03:32:49.376Z,100150.19
2023-03-02T03:33:52.599Z,100146.34
2023-03-02T03:34:54.733Z,100148.66
2023-03-02T03:35:56.872Z,100146.94
2023-03-02T03:37:02.199Z,100151.31
2023-03-02T03:38:06.661Z,100150.28
2023-03-02T03:39:08.615Z,100150.56
2023-03-02T03:40:10.890Z,100148.84
2023-03-02T03:41:13.174Z,100154.63
2023-03-02T03:42:15.566Z,100149.97
2023-03-02T03:43:17.769Z,100151.44
2023-03-02T03:44:21.370Z,100151.94
2023-03-02T03:45:23.313Z,100151.97
2023-03-02T03:46:25.458Z,100163.59
2023-03-02T03:47:27.646Z,100155.19
2023-03-02T03:48:29.685Z,100157.16
2023-03-02T03:49:31.590Z,100155.25
2023-03-02T03:50:33.548Z,100155.25
2023-03-02T03:51:35.755Z,100155.19
2023-03-02T03:52:38.397Z,100154.78
2023-03-02T03:53:40.854Z,100155.41
2023-03-02T03:54:42.715Z,100151.41
2023-03-02T03:55:44.660Z,100151.75
2023-03-02T03:56:49.136Z,100154.22
2023-03-02T03:57:51.501Z,100153.44
2023-03-02T03:59:06.224Z,100158.75
2023-03-02T04:00:14.836Z,100153.72
2023-03-02T04:01:20.814Z,100154.12
2023-03-02T04:02:22.893Z,100161.84
2023-03-02T04:03:25.528Z,100162.06
2023-03-02T04:04:33.684Z,100158.87
2023-03-02T04:05:36.980Z,100161.12
2023-03-02T04:06:40.063Z,100163.44
2023-03-02T04:07:42.030Z,100161.63
2023-03-02T04:08:44.048Z,100158.78
2023-03-02T04:09:45.993Z,100160.78
2023-03-02T04:10:48.085Z,100162.69
2023-03-02T04:11:53.305Z,100158.78
2023-03-02T04:12:55.854Z,100161.16
2023-03-02T04:13:58.302Z,100168.53
2023-03-02T04:15:00.758Z,100172.69
2023-03-02T04:16:02.953Z,100172.41
2023-03-02T04:17:07.109Z,100166.94
2023-03-02T04:18:10.457Z,100170.38
2023-03-02T04:19:13.669Z,100167.25
2023-03-02T04:20:16.586Z,100174.03
2023-03-02T04:21:19.568Z,100167.94
2023-03-02T04:22:22.108Z,100169.34
2023-03-02T04:23:23.989Z,100170.91
2023-03-02T04:24:25.977Z,100170.09
2023-03-02T04:25:30.316Z,100167.06
2023-03-02T04:26:33.869Z,100163.22
2023-03-02T04:27:36.450Z,100163.22
2023-03-02T04:28:38.786Z,100175.50
2023-03-02T04:29:41.410Z,100170.41
2023-03-02T04:30:43.492Z,100168.50
2023-03-02T04:31:45.909Z,100163.00
2023-03-02T04:32:48.183Z,100170.84
2023-03-02T04:33:50.243Z,100168.97
2023-03-02T04:34:52.204Z,100165.16
2023-03-02T04:35:54.682Z,100169.81
2023-03-02T04:36:57.246Z,100173.34
2023-03-02T04:37:59.501Z,100168.72
2023-03-02T04:39:01.374Z,100175.41
2023-03-02T04:40:04.352Z,100167.41
2023-03-02T04:41:06.329Z,100165.75
2023-03-02T04:42:08.235Z,100170.84
2023-03-02T04:43:10.375Z,100163.97
2023-03-02T04:44:13.331Z,100171.78
2023-03-02T04:45:15.291Z,100166.50
2023-03-02T04:46:21.764Z,100166.63
2023-03-02T04:47:23.879Z,100162.03
2023-03-02T04:48:26.285Z,100164.09
2023-03-02T04:49:28.185Z,100163.72
2023-03-02T04:50:30.680Z,100163.19
2023-03-02T04:51:36.892Z,100162.09
2023-03-02T04:52:39.231Z,100163.72
2023-03-02T04:53:41.506Z,100167.09
2023-03-02T04:54:43.419Z,100163.72
2023-03-02T04:55:45.480Z,100158.78
2023-03-02T04:56:48.625Z,100167.97
2023-03-02T04:57:50.612Z,100171.38
2023-03-02T04:58:52.804Z,100169.41
2023-03-02T04:59:54.644Z,100166.75
2023-03-02T05:01:03.615Z,100165.00
2023-03-02T05:02:05.672Z,100167.84
2023-03-02T05:03:07.741Z,100160.41
2023-03-02T05:04:10.208Z,100168.03
2023-03-02T05:05:19.047Z,100165.72
2023-03-02T05:06:25.231Z,100165.28
2023-03-02T05:07:27.139Z,100167.19
2023-03-02T05:08:29.713Z,100165.16
2023-03-02T05:09:31.939Z,100168.81
2023-03-02T05:10:33.858Z,100166.37
2023-03-02T05:11:35.756Z,100171.41
2023-03-02T05:12:54.724Z,100165.16
2023-03-02T05:13:59.565Z,100169.03
2023-03-02T05:15:01.697Z,100164.75
2023-03-02T05:16:03.856Z,100171.12
2023-03-02T05:17:05.791Z,100172.09
2023-03-02T05:18:10.858Z,100169.25
2023-03-02T05:19:13.508Z,100165.53
2023-03-02T05:20:15.972Z,100167.72
2023-03-02T05:21:18.790Z,100166.31
2023-03-02T05:22:20.635Z,100167.72
2023-03-02T05:23:27.165Z,100162.81
2023-03-02T05:24:29.076Z,100163.94
2023-03-02T05:25:33.555Z,100158.28
2023-03-02T05:26:35.759Z,100162.84
2023-03-02T05:27:37.819Z,100166.34
2023-03-02T05:28:41.487Z,100165.56
2023-03-02T05:29:43.410Z,100164.75
2023-03-02T05:30:46.249Z,100160.72
2023-03-02T05:31:48.894Z,100165.19
2023-03-02T05:32:51.898Z,100156.69
2023-03-02T05:33:53.778Z,100156.41
2023-03-02T05:34:55.762Z,100161.81
2023-03-02T05:35:58.550Z,100165.28
2023-03-02T05:37:00.510Z,100164.47
2023-03-02T05:38:02.408Z,100161.50
2023-03-02T05:39:05.456Z,100165.84
2023-03-02T05:40:09.656Z,100163.97
2023-03-02T05:41:12.108Z,100162.22
2023-03-02T05:42:14.195Z,100171.03
2023-03-02T05:43:18.712Z,100166.16
2023-03-02T05:44:20.607Z,100171.31
2023-03-02T05:45:35.167Z,100173.91
2023-03-02T05:46:38.239Z,100170.53
2023-03-02T05:47:40.174Z,100173.63
2023-03-02T05:48:42.515Z,100175.50
2023-03-02T05:49:44.683Z,100183.09
2023-03-02T05:50:46.628Z,100184.59
2023-03-02T05:51:48.836Z,100182.97
2023-03-02T05:52:50.926Z,100180.00
2023-03-02T05:53:52.967Z,100177.97
2023-03-02T05:54:54.951Z,100178.34
2023-03-02T05:55:57.006Z,100176.19
2023-03-02T05:56:59.197Z,100181.34
2023-03-02T05:58:01.053Z,100183.63
2023-03-02T05:59:02.988Z,100183.22
2023-03-02T06:00:05.980Z,100183.50
2023-03-02T06:01:15.532Z,100186.34
2023-03-02T06:02:18.304Z,100182.41
2023-03-02T06:03:20.318Z,100187.66
2023-03-02T06:04:22.252Z,100185.87
2023-03-02T06:05:24.681Z,100190.44
2023-03-02T06:06:26.577Z,100189.56
2023-03-02T06:07:29.946Z,100193.37
2023-03-02T06:08:31.895Z,100191.06
2023-03-02T06:09:33.966Z,100191.84
2023-03-02T06:10:36.332Z,100193.88
2023-03-02T06:11:38.179Z,100188.81
2023-03-02T06:12:40.613Z,100190.00
2023-03-02T06:13:42.535Z,100191.06
2023-03-02T06:14:44.537Z,100191.69
2023-03-02T06:15:46.841Z,100194.31
2023-03-02T06:16:49.020Z,100193.50
2023-03-02T06:17:51.264Z,100194.62
2023-03-02T06:18:53.124Z,100192.28
2023-03-02T06:19:55.040Z,100196.13
2023-03-02T06:20:57.039Z,100193.72
2023-03-02T06:21:58.947Z,100190.50
2023-03-02T06:23:01.465Z,100201.75
2023-03-02T06:24:03.396Z,100186.91
2023-03-02T06:25:05.622Z,100196.16
2023-03-02T06:26:12.030Z,100193.75
2023-03-02T06:27:14.860Z,100191.53
2023-03-02T06:28:19.900Z,100194.81
2023-03-02T06:29:22.650Z,100195.56
2023-03-02T06:30:25.966Z,100199.63
2023-03-02T06:31:28.035Z,100195.47
2023-03-02T06:32:34.174Z,100191.06
2023-03-02T06:33:36.430Z,100196.19
2023-03-02T06:34:38.287Z,100190.22
2023-03-02T06:35:40.314Z,100189.47
2023-03-02T06:36:42.277Z,100188.03
2023-03-02T06:37:44.736Z,100185.06
2023-03-02T06:38:47.045Z,100198.91
2023-03-02T06:39:48.919Z,100186.37
2023-03-02T06:40:50.777Z,100189.09
2023-03-02T06:41:52.651Z,100195.84
2023-03-02T06:42:54.586Z,100197.56
2023-03-02T06:43:57.167Z,100198.06
2023-03-02T06:44:59.172Z,100194.69
2023-03-02T06:46:02.018Z,100190.81
2023-03-02T06:47:03.945Z,100190.22
2023-03-02T06:48:07.588Z,100191.31
2023-03-02T06:49:12.487Z,100199.94
2023-03-02T06:50:15.907Z,100196.53
2023-03-02T06:51:18.132Z,100210.19
2023-03-02T06:52:20.092Z,100198.56
2023-03-02T06:53:23.406Z,100200.97
2023-03-02T06:54:25.600Z,100199.53
2023-03-02T06:55:27.629Z,100210.19
2023-03-02T06:56:29.514Z,100199.34
2023-03-02T06:57:34.236Z,100201.59
2023-03-02T06:58:37.268Z,100200.97
2023-03-02T06:59:39.500Z,100196.97
2023-03-02T07:00:41.623Z,100209.19
2023-03-02T07:01:43.778Z,100204.34
2023-03-02T07:02:45.688Z,100204.34
2023-03-02T07:03:47.878Z,100210.13
2023-03-02T07:04:50.151Z,100206.66
2023-03-02T07:05:52.290Z,100209.87
2023-03-02T07:06:54.571Z,100203.00
2023-03-02T07:07:56.418Z,100202.94
2023-03-02T07:08:58.259Z,100208.53
2023-03-02T07:10:00.386Z,100212.44
2023-03-02T07:11:06.590Z,100207.31
2023-03-02T07:12:08.478Z,100207.59
2023-03-02T07:13:10.345Z,100208.41
2023-03-02T07:14:12.212Z,100204.00
2023-03-02T07:15:15.773Z,100205.25
2023-03-02T07:16:17.744Z,100207.88
2023-03-02T07:17:19.765Z,100200.38
2023-03-02T07:18:21.773Z,100205.16
2023-03-02T07:19:23.694Z,100204.97
2023-03-02T07:20:25.890Z,100206.69
2023-03-02T07:21:27.848Z,100213.09
2023-03-02T07:22:29.724Z,100212.88
2023-03-02T07:23:31.839Z,100208.59
2023-03-02T07:24:33.913Z,100209.63
2023-03-02T07:25:37.060Z,100206.94
2023-03-02T07:26:39.108Z,100210.91
2023-03-02T07:27:41.253Z,100203.84
2023-03-02T07:28:44.506Z,100201.00
2023-03-02T07:29:46.557Z,100214.28
2023-03-02T07:30:48.914Z,100207.50
2023-03-02T07:31:56.998Z,100210.16
2023-03-02T07:32:58.998Z,100208.88
2023-03-02T07:34:00.933Z,100205.84
2023-03-02T07:35:03.211Z,100203.31
2023-03-02T07:36:07.184Z,100214.75
2023-03-02T07:37:09.148Z,100207.41
2023-03-02T07:38:11.020Z,100210.09
2023-03-02T07:39:12.881Z,100203.75
2023-03-02T07:40:15.766Z,100197.47
2023-03-02T07:41:18.167Z,100200.59
2023-03-02T07:42:20.126Z,100194.94
2023-03-02T07:43:25.471Z,100201.25
2023-03-02T07:44:28.131Z,100198.94
2023-03-02T07:45:30.167Z,100202.84
2023-03-02T07:46:32.378Z,100203.66
2023-03-02T07:47:34.376Z,100199.87
2023-03-02T07:48:36.673Z,100198.12
2023-03-02T07:49:38.919Z,100193.66
2023-03-02T07:50:40.866Z,100199.34
2023-03-02T07:51:43.069Z,100192.81
2023-03-02T07:52:44.965Z,100194.66
2023-03-02T07:53:46.921Z,100201.12
2023-03-02T07:54:49.015Z,100196.28
2023-03-02T07:55:50.875Z,100184.44
2023-03-02T07:56:53.107Z,100192.72
2023-03-02T07:57:54.967Z,100186.91
2023-03-02T07:58:56.940Z,100191.44
2023-03-02T07:59:58.812Z,100191.19
2023-03-02T08:01:00.779Z,100185.25
2023-03-02T08:02:03.149Z,100188.66
2023-03-02T08:03:05.140Z,100192.59
2023-03-02T08:04:07.074Z,100192.69
2023-03-02T08:05:13.091Z,100188.22
2023-03-02T08:06:14.992Z,100182.91
2023-03-02T08:07:17.190Z,100179.53
2023-03-02T08:08:19.086Z,100188.78
2023-03-02T08:09:20.930Z,100188.34
2023-03-02T08:10:23.162Z,100193.06
2023-03-02T08:11:25.029Z,100194.28
2023-03-02T08:12:28.188Z,100192.22
2023-03-02T08:13:30.064Z,100198.31
2023-03-02T08:14:32.358Z,100193.66
2023-03-02T08:15:34.346Z,100197.50
2023-03-02T08:16:36.330Z,100196.37
2023-03-02T08:17:38.579Z,100197.13
2023-03-02T08:18:41.740Z,100202.28
2023-03-02T08:19:43.611Z,100202.53
2023-03-02T08:20:45.492Z,100199.72
2023-03-02T08:21:47.313Z,100196.37
2023-03-02T08:22:50.182Z,100197.91
2023-03-02T08:23:52.907Z,100203.13
2023-03-02T08:24:55.018Z,100204.72
2023-03-02T08:25:57.024Z,100194.22
2023-03-02T08:27:03.081Z,100200.78
2023-03-02T08:28:05.287Z,100203.00
2023-03-02T08:29:07.316Z,100200.28
2023-03-02T08:30:10.722Z,100196.00
2023-03-02T08:31:13.828Z,100199.00
2023-03-02T08:32:15.850Z,100194.81
2023-03-02T08:33:18.133Z,100200.03
2023-03-02T08:34:20.044Z,100201.78
2023-03-02T08:35:22.288Z,100194.22
2023-03-02T08:36:24.222Z,100194.34
2023-03-02T08:37:26.220Z,100197.00
2023-03-02T08:38:29.394Z,100191.22
2023-03-02T08:39:32.195Z,100196.09
2023-03-02T08:40:34.908Z,100192.34
2023-03-02T08:41:36.841Z,100193.06
2023-03-02T08:42:38.726Z,100192.84
2023-03-02T08:43:41.092Z,100192.31
2023-03-02T08:44:43.164Z,100193.06
2023-03-02T08:45:45.608Z,100184.47
2023-03-02T08:46:50.637Z,100189.41
2023-03-02T08:47:55.680Z,100195.63
2023-03-02T08:48:57.882Z,100191.81
2023-03-02T08:49:59.826Z,100191.19
2023-03-02T08:51:10.198Z,100188.78
2023-03-02T08:52:15.281Z,100193.75
2023-03-02T08:53:17.353Z,100187.25
2023-03-02T08:54:20.771Z,100191.06
2023-03-02T08:55:22.748Z,100189.63
2023-03-02T08:56:30.280Z,100187.81
2023-03-02T08:57:32.153Z,100184.91
2023-03-02T08:58:34.113Z,100185.56
2023-03-02T08:59:36.240Z,100195.28
2023-03-02T09:00:38.578Z,100190.16
2023-03-02T09:01:41.539Z,100182.25
2023-03-02T09:02:43.585Z,100181.66
2023-03-02T09:03:45.954Z,100184.69
2023-03-02T09:04:48.304Z,100182.41
2023-03-02T09:05:51.102Z,100185.84
2023-03-02T09:06:53.113Z,100183.47
2023-03-02T09:07:55.100Z,100187.28
2023-03-02T09:08:57.853Z,100186.97
2023-03-02T09:10:00.176Z,100190.69
2023-03-02T09:11:02.176Z,100179.41
2023-03-02T09:12:04.243Z,100186.16
2023-03-02T09:13:08.356Z,100184.94
2023-03-02T09:14:11.102Z,100189.00
2023-03-02T09:15:13.363Z,100185.19
2023-03-02T09:16:16.056Z,100174.22
2023-03-02T09:17:18.090Z,100173.81
2023-03-02T09:18:20.089Z,100170.28
2023-03-02T09:19:22.127Z,100181.56
2023-03-02T09:20:24.707Z,100177.72
2023-03-02T09:21:26.724Z,100180.13
2023-03-02T09:22:28.894Z,100178.31
2023-03-02T09:23:31.289Z,100176.50
2023-03-02T09:24:33.238Z,100179.16
2023-03-02T09:25:35.529Z,100174.66
2023-03-02T09:26:39.120Z,100176.56
2023-03-02T09:27:41.813Z,100170.28
2023-03-02T09:28:43.925Z,100171.44
2023-03-02T09:29:45.833Z,100172.59
2023-03-02T09:30:50.130Z,100168.16
2023-03-02T09:31:52.219Z,100169.97
2023-03-02T09:32:54.478Z,100168.34
2023-03-02T09:33:57.174Z,100174.22
2023-03-02T09:34:59.011Z,100170.88
2023-03-02T09:36:06.067Z,100167.94
2023-03-02T09:37:07.914Z,100163.69
2023-03-02T09:38:12.947Z,100168.25
2023-03-02T09:39:14.962Z,100173.69
2023-03-02T09:40:20.504Z,100169.97
2023-03-02T09:41:22.641Z,100170.53
2023-03-02T09:42:44.118Z,100166.25
2023-03-02T09:43:52.211Z,100164.22
2023-03-02T09:45:02.888Z,100166.88
2023-03-02T09:46:10.780Z,100158.53
2023-03-02T09:47:35.439Z,100180.16
2023-03-02T09:48:45.652Z,100171.28
2023-03-02T09:50:05.597Z,100169.97
2023-03-02T09:51:16.729Z,100169.72
2023-03-02T09:52:44.947Z,100167.13
2023-03-02T09:54:03.345Z,100165.41
2023-03-02T09:55:18.419Z,100164.00
2023-03-02T09:56:21.783Z,100167.78
2023-03-02T09:57:35.089Z,100168.91
2023-03-02T09:58:39.623Z,100161.06
2023-03-02T09:59:51.815Z,100158.22
2023-03-02T10:00:53.829Z,100159.22
2023-03-02T10:02:19.028Z,100162.94
2023-03-02T10:03:23.759Z,100151.69
2023-03-02T10:04:29.236Z,100159.16
2023-03-02T10:05:37.644Z,100154.38
2023-03-02T10:06:39.587Z,100155.81
2023-03-02T10:07:42.153Z,100160.53
2023-03-02T10:08:44.072Z,100164.84
2023-03-02T10:09:46.605Z,100156.53
2023-03-02T10:11:00.280Z,100147.66
2023-03-02T10:12:52.004Z,100157.44
2023-03-02T10:14:06.362Z,100151.72
2023-03-02T10:15:22.365Z,100156.72
2023-03-02T10:16:41.506Z,100149.25
2023-03-02T10:17:52.973Z,100142.19
2023-03-02T10:19:13.130Z,100149.19
2023-03-02T10:20:22.596Z,100148.19
2023-03-02T10:21:34.956Z,100151.12
2023-03-02T10:22:48.362Z,100143.69
2023-03-02T10:24:14.840Z,100147.81
2023-03-02T10:25:48.655Z,100151.34
2023-03-02T10:26:55.673Z,100143.00
2023-03-02T10:28:22.703Z,100148.16
2023-03-02T10:29:30.723Z,100137.50
2023-03-02T10:30:37.783Z,100139.91
2023-03-02T10:31:41.605Z,100135.69
2023-03-02T10:32:47.839Z,100143.94
2023-03-02T10:33:49.726Z,100136.69
2023-03-02T10:34:53.607Z,100139.53
2023-03-02T10:35:55.915Z,100134.53
2023-03-02T10:36:58.481Z,100143.34
2023-03-02T10:38:11.923Z,100136.59
2023-03-02T10:39:16.599Z,100134.44
2023-03-02T10:40:43.702Z,100139.09
2023-03-02T10:42:03.662Z,100136.47
2023-03-02T10:43:11.404Z,100137.19
2023-03-02T10:44:22.314Z,100140.59
2023-03-02T10:45:32.147Z,100135.91
2023-03-02T10:46:46.320Z,100136.59
2023-03-02T10:47:48.598Z,100124.91
2023-03-02T10:48:52.208Z,100131.34
2023-03-02T10:49:55.784Z,100129.72
2023-03-02T10:50:59.091Z,100130.62
2023-03-02T10:52:06.983Z,100125.78
2023-03-02T10:53:17.725Z,100124.91
2023-03-02T10:54:19.589Z,100117.78
2023-03-02T10:55:21.435Z,100112.09
2023-03-02T10:56:23.369Z,100113.41
2023-03-02T10:57:25.188Z,100110.25
2023-03-02T10:58:33.338Z,100111.81
2023-03-02T10:59:43.499Z,100111.37
2023-03-02T11:00:59.433Z,100106.19
2023-03-02T11:02:03.033Z,100103.97
2023-03-02T11:03:20.202Z,100099.84
2023-03-02T11:04:22.485Z,100101.75
2023-03-02T11:05:36.877Z,100097.81
2023-03-02T11:06:38.778Z,100106.13
2023-03-02T11:07:40.689Z,100101.00
2023-03-02T11:08:42.541Z,100106.38
2023-03-02T11:10:02.591Z,100098.75
2023-03-02T11:11:04.952Z,100096.03
2023-03-02T11:12:14.517Z,100101.94
2023-03-02T11:13:20.587Z,100104.69
2023-03-02T11:14:25.498Z,100102.63
2023-03-02T11:15:40.065Z,100098.63
2023-03-02T11:16:42.231Z,100094.41
2023-03-02T11:17:46.822Z,100094.97
2023-03-02T11:19:16.221Z,100097.94
2023-03-02T11:20:25.008Z,100098.97
2023-03-02T11:21:40.598Z,100081.94
2023-03-02T11:22:54.782Z,100087.16
2023-03-02T11:24:15.200Z,100089.59
2023-03-02T11:25:30.843Z,100084.91
2023-03-02T11:26:41.698Z,100084.87
2023-03-02T11:27:45.424Z,100079.38
2023-03-02T11:29:03.364Z,100078.00
2023-03-02T11:30:19.368Z,100086.00
2023-03-02T11:31:40.170Z,100081.00
2023-03-02T11:33:12.883Z,100079.38
2023-03-02T11:34:31.214Z,100077.59
2023-03-02T11:35:58.812Z,100073.09
2023-03-02T11:37:17.176Z,100077.09
2023-03-02T11:38:54.877Z,100068.84
2023-03-02T11:40:09.044Z,100081.09
2023-03-02T11:41:24.646Z,100068.22
2023-03-02T11:42:36.274Z,100071.75
2023-03-02T11:43:38.647Z,100064.22
2023-03-02T11:44:47.376Z,100077.31
2023-03-02T11:46:13.835Z,100073.72
2023-03-02T11:47:22.680Z,100072.91
2023-03-02T11:48:37.641Z,100069.12
2023-03-02T11:49:45.707Z,100075.88
2023-03-02T11:50:59.526Z,100071.75
2023-03-02T11:52:02.233Z,100061.94
2023-03-02T11:53:08.076Z,100067.78
2023-03-02T11:54:41.103Z,100065.34
2023-03-02T11:55:48.675Z,100063.09
2023-03-02T11:56:50.751Z,100062.56
2023-03-02T11:57:56.310Z,100060.87
2023-03-02T11:59:03.026Z,100063.81
2023-03-02T12:00:16.009Z,100062.88
2023-03-02T12:01:23.534Z,100065.94
2023-03-02T12:02:27.525Z,100063.47
2023-03-02T12:03:32.421Z,100051.50
2023-03-02T12:04:37.687Z,100054.28
2023-03-02T12:05:40.068Z,100058.16
2023-03-02T12:06:45.280Z,100052.53
2023-03-02T12:07:57.444Z,100054.31
2023-03-02T12:09:31.341Z,100054.72
2023-03-02T12:10:40.018Z,100062.69
2023-03-02T12:11:46.096Z,100046.06
2023-03-02T12:13:03.838Z,100054.06
2023-03-02T12:14:45.278Z,100055.84
2023-03-02T12:15:56.279Z,100056.97
2023-03-02T12:17:18.142Z,100052.09
2023-03-02T12:18:23.066Z,100050.16
2023-03-02T12:19:38.864Z,100053.53
2023-03-02T12:20:43.002Z,100050.28
2023-03-02T12:22:02.284Z,100047.66
2023-03-02T12:23:10.594Z,100041.06
2023-03-02T12:24:25.547Z,100041.59